Terminal Aerodrome Forecast
Issued by NWS

Home | Current Version | Previous Version | Text Only | Print | Product List | Glossary On
Versions: 1 2 3 4 5 6 7 8 9 10 11 12 13 14 15 16 17 18 19 20 21 22 23 24 25 26
000
FTUS46 KSEW 211000 AAA
TAFHQM
TAF AMD
KHQM 211002Z 2110/2206 00000KT P6SM SKC
     FM211200 18008KT 2SM BR OVC003
     FM211900 20008KT P6SM OVC010
     FM212200 20008KT P6SM BKN020
     FM220200 17005KT P6SM OVC015=

USA.gov is the U.S. government's official web portal to all federal, state and local government web resources and services.